createdAt,value
2023-07-02T00:01:17.923Z,62.28
2023-07-02T00:06:14.636Z,61.80
2023-07-02T00:11:13.082Z,61.32
2023-07-02T00:16:12.774Z,60.91
2023-07-02T00:21:13.834Z,60.89
2023-07-02T00:26:12.319Z,63.07
2023-07-02T00:31:10.208Z,63.24
2023-07-02T00:36:07.156Z,62.91
2023-07-02T00:41:03.820Z,62.67
2023-07-02T00:46:00.616Z,63.49
2023-07-02T00:50:58.181Z,63.13
2023-07-02T00:55:54.796Z,63.45
2023-07-02T01:00:51.689Z,63.13
2023-07-02T01:05:48.664Z,62.88
2023-07-02T01:10:46.336Z,62.99
2023-07-02T01:15:43.627Z,62.45
2023-07-02T01:20:41.866Z,62.62
2023-07-02T01:25:38.825Z,62.70
2023-07-02T01:30:36.231Z,61.84
2023-07-02T01:35:33.704Z,62.39
2023-07-02T01:40:31.276Z,62.24
2023-07-02T01:45:28.055Z,60.81
2023-07-02T01:50:25.136Z,59.37
2023-07-02T01:55:23.164Z,59.28
2023-07-02T02:00:20.745Z,59.38
2023-07-02T02:05:17.426Z,59.19
2023-07-02T02:10:15.364Z,58.99
2023-07-02T02:15:14.349Z,59.08
2023-07-02T02:20:12.340Z,59.88
2023-07-02T02:25:12.309Z,60.18
2023-07-02T02:30:09.380Z,59.52
2023-07-02T02:35:07.221Z,59.85
2023-07-02T02:40:06.357Z,60.59
2023-07-02T02:45:03.472Z,60.85
2023-07-02T02:50:00.297Z,59.94
2023-07-02T02:54:57.086Z,59.54
2023-07-02T02:59:54.662Z,59.84
2023-07-02T03:04:51.815Z,59.86
2023-07-02T03:09:48.747Z,59.76
2023-07-02T03:14:45.622Z,61.14
2023-07-02T03:19:43.028Z,60.54
2023-07-02T03:24:40.799Z,60.52
2023-07-02T03:29:40.846Z,62.09
2023-07-02T03:34:37.689Z,62.85
2023-07-02T03:39:35.070Z,63.45
2023-07-02T03:44:31.931Z,64.03
2023-07-02T03:49:29.809Z,63.81
2023-07-02T03:54:26.715Z,63.39
2023-07-02T03:59:24.178Z,62.63
2023-07-02T04:04:21.124Z,62.26
2023-07-02T04:09:18.957Z,61.35
2023-07-02T04:14:15.818Z,62.43
2023-07-02T04:19:13.584Z,62.46
2023-07-02T04:24:10.429Z,62.95
2023-07-02T04:29:07.681Z,62.14
2023-07-02T04:34:05.490Z,61.54
2023-07-02T04:39:02.963Z,61.55
2023-07-02T04:43:59.798Z,60.03
2023-07-02T04:48:56.466Z,60.78
2023-07-02T04:53:53.399Z,62.01
2023-07-02T04:58:50.842Z,62.00
2023-07-02T05:03:49.611Z,61.96
2023-07-02T05:08:46.373Z,61.18
2023-07-02T05:13:43.142Z,61.20
2023-07-02T05:18:40.584Z,61.74
2023-07-02T05:23:37.315Z,60.53
2023-07-02T05:28:34.045Z,62.64
2023-07-02T05:33:33.007Z,63.34
2023-07-02T05:38:30.465Z,63.14
2023-07-02T05:43:27.106Z,63.44
2023-07-02T05:48:24.006Z,63.79
2023-07-02T05:53:21.118Z,63.25
2023-07-02T05:58:18.515Z,63.58
2023-07-02T06:03:19.773Z,62.50
2023-07-02T06:08:16.571Z,62.86
2023-07-02T06:13:13.471Z,63.88
2023-07-02T06:18:11.020Z,63.01
2023-07-02T06:23:07.873Z,63.38
2023-07-02T06:28:04.884Z,63.82
2023-07-02T06:33:01.868Z,63.81
2023-07-02T06:37:59.449Z,63.46
2023-07-02T06:42:59.180Z,62.16
2023-07-02T06:47:56.114Z,61.42
2023-07-02T06:52:53.049Z,61.08
2023-07-02T06:57:50.417Z,61.12
2023-07-02T07:02:47.414Z,60.54
2023-07-02T07:07:44.229Z,61.15
2023-07-02T07:12:41.049Z,62.41
2023-07-02T07:17:38.605Z,62.02
2023-07-02T07:22:35.386Z,61.28
2023-07-02T07:27:32.147Z,60.48
2023-07-02T07:32:29.011Z,60.23
2023-07-02T07:37:26.642Z,59.69
2023-07-02T07:42:26.182Z,60.72
2023-07-02T07:47:22.814Z,59.24
2023-07-02T07:52:19.696Z,59.21
2023-07-02T07:57:17.205Z,59.20
2023-07-02T08:02:14.055Z,59.36
2023-07-02T08:07:15.201Z,58.38
2023-07-02T08:12:11.816Z,57.11
2023-07-02T08:17:09.315Z,57.05
2023-07-02T08:22:06.417Z,58.30
2023-07-02T08:27:03.392Z,59.17
2023-07-02T08:32:00.228Z,59.16
2023-07-02T08:36:57.725Z,60.19
2023-07-02T08:41:54.517Z,60.37
2023-07-02T08:46:53.679Z,59.80
2023-07-02T08:51:51.637Z,59.47
2023-07-02T08:56:50.735Z,58.12
2023-07-02T09:01:49.945Z,57.39
2023-07-02T09:06:47.077Z,58.47
2023-07-02T09:11:52.600Z,60.80
2023-07-02T09:16:49.449Z,61.69
2023-07-02T09:21:47.179Z,62.43
2023-07-02T09:26:44.876Z,64.79
2023-07-02T09:32:07.302Z,65.71
2023-07-02T09:37:05.799Z,66.04
2023-07-02T09:42:03.930Z,65.97
2023-07-02T09:47:03.776Z,67.07
2023-07-02T09:52:01.472Z,65.78
2023-07-02T09:57:01.947Z,65.04
2023-07-02T10:01:59.136Z,63.44
2023-07-02T10:06:57.194Z,61.54
2023-07-02T10:11:54.056Z,60.19
2023-07-02T10:16:51.869Z,60.13
2023-07-02T10:22:01.197Z,60.19
2023-07-02T10:27:00.202Z,58.89
2023-07-02T10:31:58.181Z,59.18
2023-07-02T10:36:55.261Z,59.48
2023-07-02T10:41:52.239Z,59.52
2023-07-02T10:46:52.017Z,58.50
2023-07-02T10:51:57.714Z,58.06
2023-07-02T10:56:57.646Z,58.10
2023-07-02T11:01:56.467Z,56.49
2023-07-02T11:06:53.325Z,58.90
2023-07-02T11:11:51.239Z,58.34
2023-07-02T11:16:54.758Z,57.70
2023-07-02T11:21:52.786Z,55.11
2023-07-02T11:26:49.543Z,55.14
2023-07-02T11:31:46.467Z,53.79
2023-07-02T11:36:43.271Z,53.83
2023-07-02T11:41:41.248Z,53.13
2023-07-02T11:46:37.921Z,53.25
2023-07-02T11:51:36.154Z,53.10
2023-07-02T11:56:33.013Z,53.29
2023-07-02T12:01:30.478Z,52.85
2023-07-02T12:06:27.435Z,52.73
2023-07-02T12:11:24.145Z,53.00
2023-07-02T12:16:20.942Z,50.97
2023-07-02T12:21:19.077Z,50.77
2023-07-02T12:26:15.849Z,49.06
2023-07-02T12:31:13.485Z,48.11
2023-07-02T12:36:10.732Z,47.21
2023-07-02T12:41:08.095Z,45.66
2023-07-02T12:46:05.153Z,46.45
2023-07-02T12:51:01.971Z,46.20
2023-07-02T12:55:58.598Z,45.80
2023-07-02T13:00:56.022Z,45.51
2023-07-02T13:05:55.878Z,45.37
2023-07-02T13:10:55.214Z,45.21
2023-07-02T13:15:52.196Z,44.82
2023-07-02T13:20:49.702Z,44.69
2023-07-02T13:25:46.729Z,43.55
2023-07-02T13:30:43.821Z,41.90
2023-07-02T13:35:40.520Z,41.50
2023-07-02T13:40:37.891Z,42.02
2023-07-02T13:45:34.634Z,40.36
2023-07-02T13:50:31.526Z,40.57
2023-07-02T13:55:31.421Z,40.52
2023-07-02T14:00:29.215Z,40.91
2023-07-02T14:05:25.973Z,40.37
2023-07-02T14:10:22.942Z,40.84
2023-07-02T14:15:19.896Z,40.98
2023-07-02T14:20:17.332Z,40.60
2023-07-02T14:25:15.446Z,40.57
2023-07-02T14:30:15.015Z,40.01
2023-07-02T14:35:11.796Z,40.66
2023-07-02T14:40:10.002Z,40.14
2023-07-02T14:45:07.794Z,40.67
2023-07-02T14:50:04.868Z,40.17
2023-07-02T14:55:01.841Z,39.75
2023-07-02T14:59:59.246Z,39.26
2023-07-02T15:04:56.069Z,38.60
2023-07-02T15:09:52.983Z,38.65
2023-07-02T15:14:49.774Z,38.89
2023-07-02T15:19:47.168Z,39.40
2023-07-02T15:24:43.948Z,39.54
2023-07-02T15:29:40.636Z,40.55
2023-07-02T15:34:37.364Z,40.48
2023-07-02T15:39:35.366Z,40.92
2023-07-02T15:44:32.357Z,41.26
2023-07-02T15:49:29.237Z,41.55
2023-07-02T15:54:27.525Z,42.06
2023-07-02T15:59:25.178Z,42.14
2023-07-02T16:04:24.045Z,41.83
2023-07-02T16:09:21.920Z,41.63
2023-07-02T16:14:24.163Z,42.09
2023-07-02T16:19:24.148Z,42.57
2023-07-02T16:24:23.830Z,42.16
2023-07-02T16:29:20.628Z,42.35
2023-07-02T16:34:17.314Z,42.13
2023-07-02T16:39:18.227Z,42.35
2023-07-02T16:44:18.627Z,42.16
2023-07-02T16:49:16.166Z,42.76
2023-07-02T16:54:15.776Z,43.25
2023-07-02T16:59:16.596Z,43.58
2023-07-02T17:04:16.538Z,44.29
2023-07-02T17:09:17.605Z,44.18
2023-07-02T17:14:21.356Z,44.24
2023-07-02T17:19:19.657Z,43.97
2023-07-02T17:24:16.374Z,43.71
2023-07-02T17:29:17.816Z,43.10
2023-07-02T17:34:17.488Z,43.09
2023-07-02T17:39:15.350Z,43.76
2023-07-02T17:44:12.365Z,43.62
2023-07-02T17:49:12.922Z,44.13
2023-07-02T17:54:09.724Z,45.38
2023-07-02T17:59:08.382Z,47.70
2023-07-02T18:04:05.288Z,49.67
2023-07-02T18:09:14.055Z,50.23
2023-07-02T18:14:24.541Z,49.92
2023-07-02T18:19:24.693Z,48.49
2023-07-02T18:24:23.530Z,47.41
2023-07-02T18:29:20.832Z,47.20
2023-07-02T18:34:17.902Z,47.35
2023-07-02T18:39:14.722Z,47.45
2023-07-02T18:44:12.357Z,47.71
2023-07-02T18:49:09.146Z,48.03
2023-07-02T18:54:08.239Z,48.91
2023-07-02T18:59:05.039Z,48.82
2023-07-02T19:04:06.525Z,48.80
2023-07-02T19:09:06.042Z,48.72
2023-07-02T19:14:04.016Z,48.94
2023-07-02T19:19:00.910Z,49.34
2023-07-02T19:23:59.393Z,49.87
2023-07-02T19:28:56.477Z,49.91
2023-07-02T19:33:53.492Z,50.20
2023-07-02T19:38:50.274Z,49.87
2023-07-02T19:43:49.352Z,49.94
2023-07-02T19:48:46.060Z,50.69
2023-07-02T19:53:43.281Z,50.53
2023-07-02T19:58:40.972Z,52.24
2023-07-02T20:03:39.076Z,53.60
2023-07-02T20:08:35.910Z,53.74
2023-07-02T20:13:32.778Z,53.94
2023-07-02T20:18:29.495Z,53.97
2023-07-02T20:23:27.678Z,54.68
2023-07-02T20:28:24.728Z,54.83
2023-07-02T20:33:21.555Z,55.56
2023-07-02T20:38:18.185Z,56.41
2023-07-02T20:43:15.861Z,57.61
2023-07-02T20:48:13.618Z,56.93
2023-07-02T20:53:10.490Z,57.11
2023-07-02T20:58:07.098Z,57.51
2023-07-02T21:03:05.897Z,57.93
2023-07-02T21:08:02.657Z,59.73
2023-07-02T21:13:01.590Z,59.90
2023-07-02T21:18:01.675Z,60.31
2023-07-02T21:22:59.099Z,60.53
2023-07-02T21:27:55.882Z,60.30
2023-07-02T21:32:52.749Z,61.19
2023-07-02T21:37:49.864Z,61.13
2023-07-02T21:42:47.239Z,61.44
2023-07-02T21:47:47.295Z,60.44
2023-07-02T21:52:44.119Z,61.53
2023-07-02T21:57:40.898Z,61.64
2023-07-02T22:02:38.544Z,61.55
2023-07-02T22:07:36.941Z,61.26
2023-07-02T22:12:33.578Z,60.30
2023-07-02T22:17:30.270Z,59.28
2023-07-02T22:22:28.269Z,60.05
2023-07-02T22:27:26.994Z,59.75
2023-07-02T22:32:24.128Z,58.92
2023-07-02T22:37:20.877Z,60.37
2023-07-02T22:42:18.392Z,60.95
2023-07-02T22:47:15.229Z,59.83
2023-07-02T22:52:11.985Z,59.82
2023-07-02T22:57:08.682Z,60.24
2023-07-02T23:02:06.244Z,61.23
2023-07-02T23:07:03.071Z,62.05
2023-07-02T23:11:59.861Z,61.50
2023-07-02T23:16:56.597Z,62.28
2023-07-02T23:21:54.204Z,63.19
2023-07-02T23:26:50.849Z,63.59
2023-07-02T23:31:47.782Z,64.33
2023-07-02T23:36:45.256Z,63.98
2023-07-02T23:41:42.752Z,64.10
2023-07-02T23:46:39.452Z,64.83
2023-07-02T23:51:36.361Z,65.86
2023-07-02T23:56:35.535Z,66.24
